Pangborn Memorial Airport

Airport
ICAO code: 
KEAT
Summary
ICAO Region: 
NAM
Territory: 
Location: 
Wenatchee, Washington,
Elevation: 
1249 ft
Coordinates: 
Aerial View: 
47° 23' 55" N, 120° 12' 24.001" W
Airport CFIT: 
Altimeter Temperature Error Correction
Airport WX: 
Mountain Waves
Metar
Observation
KEAT 021555Z AUTO 33009KT 10SM CLR 09/01 A3007 RMK AO2 SLP184 T00940006
Station
Wenatchee, Pangborn Memorial Airport
Date/Time
2021-12-02 15:55:00
Wind direction
330°
Wind speed
09 kts
Lowest cloud amount
n/a
Temperature
9.4°C
Dew point
0.6°C
Humidity
54%
Weather condition
n/a

Description

Pangborn Memorial Airport is a public use airport in Douglas County, Washington, located 7 km east of the central business district of Wenatchee.

Climatology

Semi-arid climate (Köppen climate classification BSk) - Little precipitation, hot summers and cold winters, sometimes with large changes in temperature in a 24 hour period.

Runways

Designator Length Width Surface Rops
7/25 1359 46 ASP Yes/Yes
12/30 1737 46 ASP Yes/Yes
Airport map: 
Aerial View: 

SKYbrary Partners:

Safety knowledge contributed by: